createdAt,value
2023-05-21T00:01:31.046Z,27.53
2023-05-21T00:04:34.273Z,26.93
2023-05-21T00:07:38.670Z,28.27
2023-05-21T00:10:41.367Z,31.57
2023-05-21T00:13:44.153Z,28.40
2023-05-21T00:16:47.189Z,28.37
2023-05-21T00:19:50.435Z,29.63
2023-05-21T00:22:55.714Z,29.13
2023-05-21T00:25:58.483Z,24.97
2023-05-21T00:29:01.294Z,26.57
2023-05-21T00:32:04.462Z,26.03
2023-05-21T00:35:09.007Z,26.47
2023-05-21T00:38:14.346Z,28.40
2023-05-21T00:41:17.441Z,27.93
2023-05-21T00:44:20.658Z,30.17
2023-05-21T00:47:23.916Z,30.37
2023-05-21T00:50:27.831Z,28.27
2023-05-21T00:53:34.964Z,25.40
2023-05-21T00:56:38.302Z,25.43
2023-05-21T00:59:41.151Z,27.57
2023-05-21T01:02:45.339Z,30.70
2023-05-21T01:05:48.857Z,28.73
2023-05-21T01:08:53.383Z,31.43
2023-05-21T01:11:57.481Z,28.90
2023-05-21T01:15:02.153Z,27.67
2023-05-21T01:18:06.008Z,29.43
2023-05-21T01:21:09.788Z,30.07
2023-05-21T01:24:13.935Z,29.40
2023-05-21T01:27:16.829Z,28.47
2023-05-21T01:30:21.755Z,30.80
2023-05-21T01:33:28.950Z,26.60
2023-05-21T01:36:40.867Z,29.00
2023-05-21T01:39:48.623Z,27.30
2023-05-21T01:42:51.667Z,30.93
2023-05-21T01:45:56.811Z,28.33
2023-05-21T01:48:59.903Z,29.27
2023-05-21T01:52:04.397Z,28.43
2023-05-21T01:55:09.179Z,30.03
2023-05-21T01:58:11.951Z,29.70
2023-05-21T02:01:14.938Z,30.20
2023-05-21T02:04:17.685Z,28.80
2023-05-21T02:07:20.442Z,28.23
2023-05-21T02:10:27.995Z,27.80
2023-05-21T02:13:34.488Z,30.97
2023-05-21T02:16:38.438Z,27.50
2023-05-21T02:19:41.857Z,29.90
2023-05-21T02:22:46.270Z,28.90
2023-05-21T02:25:50.421Z,26.67
2023-05-21T02:28:54.089Z,27.57
2023-05-21T02:31:56.858Z,32.27
2023-05-21T02:34:59.818Z,30.23
2023-05-21T02:38:03.157Z,27.43
2023-05-21T02:41:07.586Z,29.63
2023-05-21T02:44:10.317Z,30.90
2023-05-21T02:47:13.054Z,29.33
2023-05-21T02:50:16.048Z,28.50
2023-05-21T02:53:18.790Z,32.73
2023-05-21T02:56:23.324Z,30.40
2023-05-21T02:59:26.095Z,30.37
2023-05-21T03:02:29.343Z,29.83
2023-05-21T03:05:32.188Z,31.47
2023-05-21T03:08:35.023Z,33.27
2023-05-21T03:11:39.110Z,29.20
2023-05-21T03:14:44.204Z,28.13
2023-05-21T03:17:48.316Z,28.60
2023-05-21T03:20:51.473Z,31.80
2023-05-21T03:23:58.621Z,29.37
2023-05-21T03:27:02.863Z,36.40
2023-05-21T03:30:06.955Z,27.70
2023-05-21T03:33:11.182Z,28.03
2023-05-21T03:36:14.169Z,30.13
2023-05-21T03:39:17.138Z,27.47
2023-05-21T03:42:21.244Z,28.30
2023-05-21T03:45:23.957Z,28.37
2023-05-21T03:48:26.774Z,27.23
2023-05-21T03:51:30.813Z,30.13
2023-05-21T03:54:33.547Z,29.03
2023-05-21T03:57:37.769Z,29.80
2023-05-21T04:00:40.631Z,27.10
2023-05-21T04:03:43.697Z,29.43
2023-05-21T04:06:46.525Z,29.60
2023-05-21T04:09:49.376Z,29.53
2023-05-21T04:12:53.583Z,31.07
2023-05-21T04:15:56.440Z,31.83
2023-05-21T04:18:59.623Z,29.73
2023-05-21T04:22:03.168Z,27.77
2023-05-21T04:25:06.363Z,27.57
2023-05-21T04:28:11.060Z,27.90
2023-05-21T04:31:14.044Z,30.13
2023-05-21T04:34:18.888Z,27.53
2023-05-21T04:37:24.639Z,31.73
2023-05-21T04:40:27.366Z,27.97
2023-05-21T04:43:32.095Z,28.70
2023-05-21T04:46:35.847Z,29.30
2023-05-21T04:49:38.917Z,28.10
2023-05-21T04:52:41.761Z,30.00
2023-05-21T04:55:44.515Z,29.00
2023-05-21T04:58:49.332Z,29.53
2023-05-21T05:01:52.692Z,28.60
2023-05-21T05:04:55.617Z,32.70
2023-05-21T05:07:58.405Z,31.87
2023-05-21T05:11:01.250Z,27.00
2023-05-21T05:14:05.331Z,25.00
2023-05-21T05:17:09.920Z,25.07
2023-05-21T05:20:12.993Z,27.93
2023-05-21T05:23:16.092Z,30.00
2023-05-21T05:26:18.942Z,28.17
2023-05-21T05:29:23.065Z,27.53
2023-05-21T05:32:25.841Z,27.03
2023-05-21T05:35:28.578Z,25.83
2023-05-21T05:38:31.374Z,23.43
2023-05-21T05:41:34.100Z,26.17
2023-05-21T05:44:38.246Z,25.37
2023-05-21T05:47:41.008Z,27.77
2023-05-21T05:50:43.938Z,27.67
2023-05-21T05:53:46.671Z,26.80
2023-05-21T05:56:49.426Z,26.70
2023-05-21T05:59:53.506Z,27.97
2023-05-21T06:02:56.361Z,30.23
2023-05-21T06:05:59.220Z,26.47
2023-05-21T06:09:02.042Z,23.90
2023-05-21T06:12:05.740Z,24.20
2023-05-21T06:15:11.139Z,25.50
2023-05-21T06:18:13.914Z,26.70
2023-05-21T06:21:16.646Z,24.90
2023-05-21T06:24:19.537Z,26.60
2023-05-21T06:27:22.401Z,23.67
2023-05-21T06:30:26.560Z,22.50
2023-05-21T06:33:29.487Z,22.90
2023-05-21T06:36:32.457Z,21.93
2023-05-21T06:39:35.339Z,23.10
2023-05-21T06:42:38.142Z,21.47
2023-05-21T06:45:42.432Z,19.50
2023-05-21T06:48:45.922Z,19.77
2023-05-21T06:51:48.802Z,23.10
2023-05-21T06:54:51.581Z,18.77
2023-05-21T06:57:54.431Z,20.33
2023-05-21T07:00:58.529Z,28.80
2023-05-21T07:04:02.368Z,18.67
2023-05-21T07:07:05.744Z,16.63
2023-05-21T07:10:09.753Z,19.40
2023-05-21T07:13:12.690Z,16.57
2023-05-21T07:16:17.878Z,16.10
2023-05-21T07:19:21.233Z,13.77
2023-05-21T07:22:25.946Z,16.53
2023-05-21T07:25:30.251Z,14.10
2023-05-21T07:28:33.253Z,12.43
2023-05-21T07:31:37.837Z,13.40
2023-05-21T07:34:41.459Z,13.67
2023-05-21T07:37:44.339Z,13.77
2023-05-21T07:40:47.173Z,16.60
2023-05-21T07:43:50.406Z,16.07
2023-05-21T07:46:54.563Z,15.23
2023-05-21T07:49:58.780Z,14.27
2023-05-21T07:53:02.484Z,14.40
2023-05-21T07:56:05.609Z,12.87
2023-05-21T07:59:08.417Z,12.47
2023-05-21T08:02:12.695Z,14.40
2023-05-21T08:05:16.476Z,12.00
2023-05-21T08:08:20.139Z,15.60
2023-05-21T08:11:23.423Z,15.07
2023-05-21T08:14:26.298Z,13.70
2023-05-21T08:17:30.620Z,17.33
2023-05-21T08:20:34.362Z,16.17
2023-05-21T08:23:37.131Z,12.80
2023-05-21T08:26:39.868Z,12.50
2023-05-21T08:29:42.712Z,13.07
2023-05-21T08:32:47.046Z,12.27
2023-05-21T08:35:49.997Z,15.30
2023-05-21T08:38:52.906Z,14.20
2023-05-21T08:42:03.907Z,13.00
2023-05-21T08:45:07.764Z,12.43
2023-05-21T08:48:13.273Z,13.23
2023-05-21T08:51:17.043Z,13.03
2023-05-21T08:54:19.798Z,13.53
2023-05-21T08:57:26.293Z,13.33
2023-05-21T09:00:29.062Z,12.87
2023-05-21T09:03:33.337Z,14.13
2023-05-21T09:06:36.497Z,16.77
2023-05-21T09:09:47.244Z,12.70
2023-05-21T09:12:50.181Z,16.63
2023-05-21T09:15:52.919Z,13.30
2023-05-21T09:18:57.099Z,14.57
2023-05-21T09:22:03.840Z,12.87
2023-05-21T09:25:08.985Z,12.70
2023-05-21T09:28:16.607Z,14.53
2023-05-21T09:31:19.473Z,12.20
2023-05-21T09:34:26.371Z,12.33
2023-05-21T09:37:29.873Z,12.47
2023-05-21T09:40:32.666Z,11.97
2023-05-21T09:43:35.509Z,6.53
2023-05-21T09:46:42.517Z,14.90
2023-05-21T09:49:46.888Z,11.37
2023-05-21T09:52:52.921Z,12.20
2023-05-21T09:55:59.031Z,14.13
2023-05-21T09:59:04.696Z,12.83
2023-05-21T10:02:19.597Z,11.43
2023-05-21T10:05:27.485Z,13.03
2023-05-21T10:08:35.049Z,14.80
2023-05-21T10:11:38.298Z,12.97
2023-05-21T10:14:43.382Z,12.97
2023-05-21T10:17:47.419Z,10.83
2023-05-21T10:20:52.327Z,11.50
2023-05-21T10:23:57.464Z,11.90
2023-05-21T10:27:02.276Z,11.70
2023-05-21T10:30:06.938Z,13.67
2023-05-21T10:33:10.238Z,11.60
2023-05-21T10:36:17.587Z,12.00
2023-05-21T10:39:24.054Z,12.90
2023-05-21T10:42:48.914Z,12.23
2023-05-21T10:46:10.769Z,11.07
2023-05-21T10:49:39.736Z,11.87
2023-05-21T10:52:58.108Z,9.37
2023-05-21T10:56:12.904Z,13.00
2023-05-21T10:59:26.827Z,11.20
2023-05-21T11:02:31.082Z,11.13
2023-05-21T11:05:41.549Z,9.90
2023-05-21T11:08:48.830Z,9.93
2023-05-21T11:11:52.818Z,9.47
2023-05-21T11:14:58.414Z,10.63
2023-05-21T11:18:01.316Z,11.83
2023-05-21T11:21:07.038Z,9.60
2023-05-21T11:24:20.284Z,10.67
2023-05-21T11:27:34.187Z,14.50
2023-05-21T11:30:38.960Z,11.23
2023-05-21T11:33:43.730Z,11.27
2023-05-21T11:36:48.428Z,11.00
2023-05-21T11:39:52.756Z,11.70
2023-05-21T11:42:56.904Z,11.07
2023-05-21T11:46:00.759Z,9.83
2023-05-21T11:49:04.864Z,11.53
2023-05-21T11:52:09.558Z,12.63
2023-05-21T11:55:15.928Z,14.03
2023-05-21T11:58:19.980Z,10.93
2023-05-21T12:01:24.058Z,11.35
2023-05-21T12:04:30.844Z,11.07
2023-05-21T12:07:33.599Z,11.43
2023-05-21T12:10:39.617Z,12.03
2023-05-21T12:13:42.586Z,10.63
2023-05-21T12:16:45.614Z,11.60
2023-05-21T12:19:49.381Z,10.02
2023-05-21T12:22:52.166Z,10.57
2023-05-21T12:25:56.422Z,10.37
2023-05-21T12:28:59.691Z,11.60
2023-05-21T12:32:03.199Z,10.87
2023-05-21T12:35:06.894Z,10.70
2023-05-21T12:38:10.047Z,11.03
2023-05-21T12:41:14.339Z,10.15
2023-05-21T12:44:17.402Z,9.98
2023-05-21T12:47:20.706Z,9.52
2023-05-21T12:50:23.612Z,9.23
2023-05-21T12:53:27.046Z,8.80
2023-05-21T12:56:45.568Z,9.35
2023-05-21T12:59:50.785Z,10.35
2023-05-21T13:02:53.630Z,11.05
2023-05-21T13:05:59.765Z,10.52
2023-05-21T13:09:02.542Z,10.63
2023-05-21T13:12:07.801Z,9.02
2023-05-21T13:15:11.668Z,8.30
2023-05-21T13:18:16.057Z,8.15
2023-05-21T13:21:19.030Z,11.80
2023-05-21T13:24:22.271Z,7.53
2023-05-21T13:27:26.523Z,7.47
2023-05-21T13:30:29.869Z,8.45
2023-05-21T13:33:32.879Z,10.25
2023-05-21T13:36:36.437Z,9.90
2023-05-21T13:39:39.538Z,10.25
2023-05-21T13:42:44.385Z,10.05
2023-05-21T13:45:50.019Z,9.43
2023-05-21T13:48:52.853Z,7.68
2023-05-21T13:51:55.776Z,9.38
2023-05-21T13:54:58.817Z,10.90
2023-05-21T13:58:03.012Z,9.20
2023-05-21T14:01:07.295Z,10.43
2023-05-21T14:04:10.400Z,10.95
2023-05-21T14:07:13.304Z,9.55
2023-05-21T14:10:16.221Z,9.80
2023-05-21T14:13:21.076Z,12.75
2023-05-21T14:16:25.236Z,11.48
2023-05-21T14:19:30.517Z,10.23
2023-05-21T14:22:33.350Z,10.85
2023-05-21T14:25:36.487Z,9.13
2023-05-21T14:28:40.798Z,11.82
2023-05-21T14:31:44.166Z,10.30
2023-05-21T14:34:47.124Z,8.57
2023-05-21T14:37:50.530Z,8.45
2023-05-21T14:40:53.309Z,8.90
2023-05-21T14:43:58.125Z,12.25
2023-05-21T14:47:00.897Z,10.48
2023-05-21T14:50:04.218Z,8.90
2023-05-21T14:53:07.096Z,8.77
2023-05-21T14:56:10.110Z,11.05
2023-05-21T14:59:14.378Z,7.45
2023-05-21T15:02:17.870Z,13.07
2023-05-21T15:05:21.151Z,8.00
2023-05-21T15:08:23.902Z,9.60
2023-05-21T15:11:26.684Z,10.45
2023-05-21T15:14:30.918Z,10.88
2023-05-21T15:17:34.141Z,9.57
2023-05-21T15:20:36.964Z,9.88
2023-05-21T15:23:39.756Z,8.60
2023-05-21T15:26:42.612Z,9.45
2023-05-21T15:29:46.816Z,8.82
2023-05-21T15:32:49.733Z,10.43
2023-05-21T15:35:52.676Z,9.25
2023-05-21T15:38:55.661Z,11.40
2023-05-21T15:41:58.409Z,8.18
2023-05-21T15:45:02.640Z,7.90
2023-05-21T15:48:05.914Z,8.32
2023-05-21T15:51:08.859Z,8.88
2023-05-21T15:54:11.641Z,8.67
2023-05-21T15:57:14.460Z,12.00
2023-05-21T16:00:18.798Z,10.37
2023-05-21T16:03:22.266Z,10.77
2023-05-21T16:06:25.837Z,7.97
2023-05-21T16:09:28.793Z,9.67
2023-05-21T16:12:31.794Z,9.13
2023-05-21T16:15:36.264Z,10.17
2023-05-21T16:18:39.200Z,10.23
2023-05-21T16:21:42.643Z,9.13
2023-05-21T16:24:45.404Z,9.87
2023-05-21T16:27:48.658Z,10.53
2023-05-21T16:30:52.949Z,11.80
2023-05-21T16:33:55.889Z,9.60
2023-05-21T16:36:59.131Z,8.60
2023-05-21T16:40:02.448Z,12.30
2023-05-21T16:43:05.375Z,8.10
2023-05-21T16:46:09.613Z,9.53
2023-05-21T16:49:12.326Z,12.57
2023-05-21T16:52:15.074Z,9.47
2023-05-21T16:55:18.252Z,10.97
2023-05-21T16:58:21.184Z,9.27
2023-05-21T17:01:25.659Z,9.93
2023-05-21T17:04:28.511Z,10.07
2023-05-21T17:07:31.720Z,12.53
2023-05-21T17:10:34.857Z,11.27
2023-05-21T17:13:37.633Z,8.87
2023-05-21T17:16:42.932Z,12.17
2023-05-21T17:19:45.746Z,10.20
2023-05-21T17:22:48.860Z,14.33
2023-05-21T17:25:51.988Z,10.03
2023-05-21T17:28:54.866Z,10.73
2023-05-21T17:31:59.165Z,10.97
2023-05-21T17:35:02.468Z,11.97
2023-05-21T17:38:05.287Z,10.63
2023-05-21T17:41:08.213Z,10.97
2023-05-21T17:44:11.416Z,11.10
2023-05-21T17:47:15.603Z,10.37
2023-05-21T17:50:18.419Z,13.57
2023-05-21T17:53:21.222Z,12.80
2023-05-21T17:56:24.105Z,11.83
2023-05-21T17:59:26.880Z,9.40
2023-05-21T18:02:31.034Z,10.93
2023-05-21T18:05:33.859Z,10.67
2023-05-21T18:08:36.684Z,15.63
2023-05-21T18:11:40.302Z,11.20
2023-05-21T18:14:43.118Z,10.53
2023-05-21T18:17:48.414Z,13.97
2023-05-21T18:20:51.316Z,17.73
2023-05-21T18:23:54.146Z,14.23
2023-05-21T18:26:56.976Z,16.50
2023-05-21T18:30:03.320Z,12.93
2023-05-21T18:33:08.328Z,10.87
2023-05-21T18:36:11.598Z,9.90
2023-05-21T18:39:14.332Z,11.30
2023-05-21T18:42:17.323Z,14.23
2023-05-21T18:45:20.088Z,11.77
2023-05-21T18:48:24.228Z,11.70
2023-05-21T18:51:27.067Z,19.80
2023-05-21T18:54:29.855Z,13.23
2023-05-21T18:57:34.361Z,12.47
2023-05-21T19:00:39.426Z,12.10
2023-05-21T19:03:43.784Z,14.30
2023-05-21T19:06:47.115Z,21.33
2023-05-21T19:09:49.977Z,13.03
2023-05-21T19:12:52.768Z,14.90
2023-05-21T19:15:57.499Z,13.40
2023-05-21T19:19:02.023Z,14.47
2023-05-21T19:22:04.956Z,12.93
2023-05-21T19:25:08.388Z,12.30
2023-05-21T19:28:11.359Z,14.60
2023-05-21T19:31:14.185Z,11.87
2023-05-21T19:34:18.453Z,13.13
2023-05-21T19:37:21.438Z,14.90
2023-05-21T19:40:24.211Z,15.03
2023-05-21T19:43:28.009Z,14.53
2023-05-21T19:46:32.039Z,14.20
2023-05-21T19:49:36.124Z,13.27
2023-05-21T19:52:39.100Z,16.57
2023-05-21T19:55:41.937Z,15.80
2023-05-21T19:58:47.217Z,14.07
2023-05-21T20:01:50.253Z,17.50
2023-05-21T20:04:57.475Z,18.77
2023-05-21T20:08:00.203Z,13.57
2023-05-21T20:11:03.459Z,15.37
2023-05-21T20:14:06.794Z,14.10
2023-05-21T20:17:10.375Z,13.43
2023-05-21T20:20:14.783Z,13.33
2023-05-21T20:23:17.848Z,15.97
2023-05-21T20:26:21.823Z,16.20
2023-05-21T20:29:24.648Z,19.53
2023-05-21T20:32:27.502Z,13.60
2023-05-21T20:35:31.945Z,16.03
2023-05-21T20:38:36.910Z,15.33
2023-05-21T20:41:39.656Z,19.10
2023-05-21T20:44:45.086Z,17.50
2023-05-21T20:47:50.080Z,13.57
2023-05-21T20:50:54.371Z,14.10
2023-05-21T20:53:57.226Z,18.03
2023-05-21T20:57:00.145Z,14.93
2023-05-21T21:00:05.448Z,17.53
2023-05-21T21:03:10.368Z,15.20
2023-05-21T21:06:14.694Z,16.80
2023-05-21T21:09:17.665Z,16.57
2023-05-21T21:12:25.295Z,17.70
2023-05-21T21:15:29.469Z,15.33
2023-05-21T21:18:32.197Z,16.43
2023-05-21T21:21:36.642Z,17.10
2023-05-21T21:24:39.407Z,16.53
2023-05-21T21:27:42.473Z,18.67
2023-05-21T21:30:45.812Z,15.80
2023-05-21T21:33:48.631Z,15.73
2023-05-21T21:36:52.888Z,18.17
2023-05-21T21:39:55.815Z,24.07
2023-05-21T21:42:59.436Z,20.13
2023-05-21T21:46:02.527Z,18.47
2023-05-21T21:49:05.502Z,18.27
2023-05-21T21:52:10.869Z,15.20
2023-05-21T21:55:13.709Z,16.93
2023-05-21T21:58:16.522Z,18.33
2023-05-21T22:01:19.769Z,18.53
2023-05-21T22:04:22.662Z,21.50
2023-05-21T22:07:28.901Z,16.27
2023-05-21T22:10:33.493Z,16.10
2023-05-21T22:13:36.680Z,17.00
2023-05-21T22:16:41.579Z,18.97
2023-05-21T22:19:44.505Z,17.50
2023-05-21T22:22:48.783Z,20.80
2023-05-21T22:25:51.714Z,18.17
2023-05-21T22:28:54.503Z,19.37
2023-05-21T22:31:57.412Z,18.70
2023-05-21T22:35:00.200Z,19.07
2023-05-21T22:38:04.320Z,21.87
2023-05-21T22:41:08.500Z,18.77
2023-05-21T22:44:11.284Z,20.07
2023-05-21T22:47:14.092Z,20.20
2023-05-21T22:50:18.064Z,16.37
2023-05-21T22:53:23.343Z,20.83
2023-05-21T22:56:26.335Z,21.30
2023-05-21T22:59:29.620Z,18.70
2023-05-21T23:02:32.491Z,18.07
2023-05-21T23:05:35.262Z,16.97
2023-05-21T23:08:39.571Z,18.67
2023-05-21T23:11:42.351Z,22.37
2023-05-21T23:14:45.072Z,23.67
2023-05-21T23:17:47.824Z,22.80
2023-05-21T23:20:50.953Z,18.47
2023-05-21T23:23:55.131Z,18.80
2023-05-21T23:27:02.778Z,20.50
2023-05-21T23:30:06.279Z,20.53
2023-05-21T23:33:09.879Z,18.27
2023-05-21T23:36:12.717Z,22.27
2023-05-21T23:39:16.859Z,20.20
2023-05-21T23:42:19.866Z,21.33
2023-05-21T23:45:22.702Z,21.70
2023-05-21T23:48:25.692Z,18.70
2023-05-21T23:51:28.565Z,17.53
2023-05-21T23:54:32.724Z,18.43
2023-05-21T23:57:35.472Z,16.73
